Terminal Aerodrome Forecast
Issued by NWS

Home | Current Version | Previous Version | Text Only | Print | Product List | Glossary On
Versions: 1 2 3 4 5 6 7 8 9 10 11 12 13 14 15 16 17 18 19
000
FTUS43 KBIS 201100
TAFDIK
TAF
KDIK 201122Z 2012/2112 18006KT P6SM SCT070 BKN100
     FM201500 23007KT P6SM VCSH SCT040 BKN070 OVC100
     FM202100 25013KT P6SM SCT100 BKN250
     FM210600 19008KT P6SM SCT250=

USA.gov is the U.S. government's official web portal to all federal, state and local government web resources and services.